Terminal Aerodrome Forecast
Issued by NWS

Home | Current Version | Previous Version | Graphics & Text | Print | Product List | Glossary On
Versions: 1 2 3 4 5 6 7 8 9 10 11 12 13 14 15 16 17 18
000
FTUS43 KICT 240848 AAA
TAFHUT
TAF AMD
KHUT 240848Z 2409/2506 34015KT 6SM -SN BR SCT015 OVC035
      TEMPO 2409/2411 4SM -SN BR OVC025
     FM241600 32015KT P6SM SCT020 BKN035
     FM242100 27010KT P6SM SKC
     FM250300 19007KT P6SM SKC=

USA.gov is the U.S. government's official web portal to all federal, state and local government web resources and services.